Rawlins, WY

5:56 PM MDT on August 30, 2014 (GMT -0600)
Rawlins Municipal | Change Station
CLOSE
Current Station
Airport
Location: Rawlins,
Elevation: 6814 ft
Nearby Weather Stations

Elev 6814 ft 41.81 °N, 107.20 °W | Updated 1 hour ago

Clear
Clear
66 °F
Feels Like 66 °F
N
32
Wind Variable Wind from West
Gusts 41 mph

Today
High -- | Low -- °F
--% Chance of Precip.
Yesterday
High -- | Low -- °F
Precip. -- in
6:32 AM 7:45 PM
Waxing Crescent, 25% visible
Pressure 29.81 in
Visibility 10.0 miles
Clouds Clear
Dew Point 43 °F
Humidity 43%
Rainfall 0.04 in
Snow Depth Not available.
UV 3 out of 12
Pollen 9.60 out of 12
Air Quality Not available.
Flu Activity Not available.
METAR KRWL 302253Z AUTO 27028G36KT 10SM CLR 19/06 A3005 RMK AO2 PK WND 24039/2239 RAE08 SLP095 P0000 T01890061

More Conditions Fewer Conditions

Pressure 29.81 in
Visibility 10.0 miles
Clouds Clear
Dew Point 43 °F
Humidity 43%
Rainfall 0.04 in
Snow Depth Not available.
UV 3 out of 12
Pollen 9.60 out of 12
Air Quality Not available.
Flu Activity Not available.
METAR KRWL 302253Z AUTO 27028G36KT 10SM CLR 19/06 A3005 RMK AO2 PK WND 24039/2239 RAE08 SLP095 P0000 T01890061

More Conditions Fewer Conditions

Nowcast | as of 4:58 PM MDT on August 30, 2014

Scattered showers and thunderstorms will continue to affect much of southeast Wyoming and the western Nebraska Panhandle through the evening. The strongest storms will produce brief moderate to heavy rain and gusty winds to 45 mph...along with occasional lightning and possibly small hail. If threatening weather approaches your area...seek shelter indoors until the storms pass.

×

10-Day Weather Forecast

Almanac

Astronomy

Aug. 30, 2014 Rise Set
Actual Time 6:32 AM MDT 7:45 PM MDT
Civil Twilight 6:04 AM MDT 8:14 PM MDT
Nautical Twilight 5:29 AM MDT 8:48 PM MDT
Astronomical Twilight 4:53 AM MDT 9:24 PM MDT
Moon 11:27 AM MDT 10:16 PM MDT
Length of Visible Light 14h 10m
Length of Day
13h 12m
Tomorrow will be 2m 41s shorter.
Waxing Crescent, 25% of the Moon is Illuminated
Today
Waxing Crescent
Sep 2
First Quarter
Sep 8
Full
Sep 15
Last Quarter
Sep 24
New

Today's Extremes

State Highs State Lows

Community

WunderPhotos

Upload Photos

1,748,676 photos uploaded!

Nearby

Snow Depth

Station Depth Elevation
Old Battle 0 in 9920 ft
Cinnabar Park 0 in 9690 ft
Reno Hill 0 in 8500 ft
Casper Mountain 0 in 7850 ft
Crow Creek 4 in 8330 ft

Earthquake Activity

City Distance Mag. Time & Date
No recent earthquake activity has been reported nearby.
Minimum magnitude displayed is 2.5.

Coastal Water Temperatures

Place Temperature
No Stations Reporting

Nearby Weather Stations